sensor_id;sensor_type;location;lat;lon;timestamp;temperature;humidity
54680;DHT22;40578;53.178;5.846;2022-07-24T00:00:27;16.30;1.00
54680;DHT22;40578;53.178;5.846;2022-07-24T00:02:52;16.20;1.00
54680;DHT22;40578;53.178;5.846;2022-07-24T00:05:18;16.10;1.00
54680;DHT22;40578;53.178;5.846;2022-07-24T00:07:43;16.10;1.00
54680;DHT22;40578;53.178;5.846;2022-07-24T00:10:09;16.10;19.20
54680;DHT22;40578;53.178;5.846;2022-07-24T00:12:36;16.00;58.30
54680;DHT22;40578;53.178;5.846;2022-07-24T00:15:02;16.00;97.70
54680;DHT22;40578;53.178;5.846;2022-07-24T00:17:28;15.90;99.90
54680;DHT22;40578;53.178;5.846;2022-07-24T00:19:53;15.80;99.90
54680;DHT22;40578;53.178;5.846;2022-07-24T00:22:19;15.70;99.90
54680;DHT22;40578;53.178;5.846;2022-07-24T00:24:45;15.60;99.90
54680;DHT22;40578;53.178;5.846;2022-07-24T00:27:10;15.60;99.90
54680;DHT22;40578;53.178;5.846;2022-07-24T00:29:36;15.50;99.90
54680;DHT22;40578;53.178;5.846;2022-07-24T00:32:02;15.50;99.90
54680;DHT22;40578;53.178;5.846;2022-07-24T00:34:27;15.40;99.90
54680;DHT22;40578;53.178;5.846;2022-07-24T00:36:53;15.30;99.90
54680;DHT22;40578;53.178;5.846;2022-07-24T00:39:18;15.30;99.90
54680;DHT22;40578;53.178;5.846;2022-07-24T00:41:44;15.20;99.90
54680;DHT22;40578;53.178;5.846;2022-07-24T00:44:13;15.20;99.90
54680;DHT22;40578;53.178;5.846;2022-07-24T00:46:40;15.20;99.90
54680;DHT22;40578;53.178;5.846;2022-07-24T00:49:10;15.10;99.90
54680;DHT22;40578;53.178;5.846;2022-07-24T00:51:36;15.10;99.90
54680;DHT22;40578;53.178;5.846;2022-07-24T00:54:05;15.20;99.90
54680;DHT22;40578;53.178;5.846;2022-07-24T00:56:31;15.10;99.90
54680;DHT22;40578;53.178;5.846;2022-07-24T00:58:57;15.00;99.90
54680;DHT22;40578;53.178;5.846;2022-07-24T01:01:24;15.00;99.90
54680;DHT22;40578;53.178;5.846;2022-07-24T01:03:50;15.00;99.90
54680;DHT22;40578;53.178;5.846;2022-07-24T01:06:15;14.90;99.90
54680;DHT22;40578;53.178;5.846;2022-07-24T01:08:41;14.90;99.90
54680;DHT22;40578;53.178;5.846;2022-07-24T01:11:10;14.90;99.90
54680;DHT22;40578;53.178;5.846;2022-07-24T01:13:37;14.90;99.90
54680;DHT22;40578;53.178;5.846;2022-07-24T01:16:02;14.80;99.90
54680;DHT22;40578;53.178;5.846;2022-07-24T01:18:28;14.80;99.90
54680;DHT22;40578;53.178;5.846;2022-07-24T01:20:54;14.80;99.90
54680;DHT22;40578;53.178;5.846;2022-07-24T01:23:21;14.70;99.90
54680;DHT22;40578;53.178;5.846;2022-07-24T01:25:47;14.70;99.90
54680;DHT22;40578;53.178;5.846;2022-07-24T01:28:12;14.70;99.90
54680;DHT22;40578;53.178;5.846;2022-07-24T01:30:38;14.70;99.90
54680;DHT22;40578;53.178;5.846;2022-07-24T01:33:04;14.70;99.90
54680;DHT22;40578;53.178;5.846;2022-07-24T01:35:29;14.70;99.90
54680;DHT22;40578;53.178;5.846;2022-07-24T01:37:55;14.70;99.90
54680;DHT22;40578;53.178;5.846;2022-07-24T01:40:21;14.60;99.90
54680;DHT22;40578;53.178;5.846;2022-07-24T01:42:47;14.60;99.90
54680;DHT22;40578;53.178;5.846;2022-07-24T01:45:13;14.60;99.90
54680;DHT22;40578;53.178;5.846;2022-07-24T01:47:40;14.60;99.90
54680;DHT22;40578;53.178;5.846;2022-07-24T01:50:06;14.60;99.90
54680;DHT22;40578;53.178;5.846;2022-07-24T01:52:31;14.70;99.90
54680;DHT22;40578;53.178;5.846;2022-07-24T01:54:57;14.60;99.90
54680;DHT22;40578;53.178;5.846;2022-07-24T01:57:23;14.50;99.90
54680;DHT22;40578;53.178;5.846;2022-07-24T01:59:48;14.50;99.90
54680;DHT22;40578;53.178;5.846;2022-07-24T02:02:14;14.60;99.90
54680;DHT22;40578;53.178;5.846;2022-07-24T02:04:40;14.60;99.90
54680;DHT22;40578;53.178;5.846;2022-07-24T02:07:05;14.60;99.90
54680;DHT22;40578;53.178;5.846;2022-07-24T02:09:31;14.60;99.90
54680;DHT22;40578;53.178;5.846;2022-07-24T02:11:56;14.60;99.90
54680;DHT22;40578;53.178;5.846;2022-07-24T02:14:22;14.50;99.90
54680;DHT22;40578;53.178;5.846;2022-07-24T02:16:48;14.50;99.90
54680;DHT22;40578;53.178;5.846;2022-07-24T02:19:14;14.50;99.90
54680;DHT22;40578;53.178;5.846;2022-07-24T02:21:39;14.60;99.90
54680;DHT22;40578;53.178;5.846;2022-07-24T02:24:05;14.60;99.90
54680;DHT22;40578;53.178;5.846;2022-07-24T02:26:31;14.60;99.90
54680;DHT22;40578;53.178;5.846;2022-07-24T02:28:58;14.70;99.90
54680;DHT22;40578;53.178;5.846;2022-07-24T02:31:24;14.60;99.90
54680;DHT22;40578;53.178;5.846;2022-07-24T02:33:49;14.60;99.90
54680;DHT22;40578;53.178;5.846;2022-07-24T02:36:15;14.50;99.90
54680;DHT22;40578;53.178;5.846;2022-07-24T02:38:41;14.60;99.90
54680;DHT22;40578;53.178;5.846;2022-07-24T02:41:07;14.50;99.90
54680;DHT22;40578;53.178;5.846;2022-07-24T02:43:33;14.50;99.90
54680;DHT22;40578;53.178;5.846;2022-07-24T02:45:58;14.50;99.90
54680;DHT22;40578;53.178;5.846;2022-07-24T02:48:24;14.50;99.90
54680;DHT22;40578;53.178;5.846;2022-07-24T02:50:50;14.50;99.90
54680;DHT22;40578;53.178;5.846;2022-07-24T02:53:15;14.50;99.90
54680;DHT22;40578;53.178;5.846;2022-07-24T02:55:41;14.50;99.90
54680;DHT22;40578;53.178;5.846;2022-07-24T02:58:07;14.50;99.90
54680;DHT22;40578;53.178;5.846;2022-07-24T03:00:32;14.50;99.90
54680;DHT22;40578;53.178;5.846;2022-07-24T03:02:58;14.50;99.90
54680;DHT22;40578;53.178;5.846;2022-07-24T03:05:24;14.50;99.90
54680;DHT22;40578;53.178;5.846;2022-07-24T03:07:50;14.50;99.90
54680;DHT22;40578;53.178;5.846;2022-07-24T03:10:15;14.50;99.90
54680;DHT22;40578;53.178;5.846;2022-07-24T03:12:42;14.50;99.90
54680;DHT22;40578;53.178;5.846;2022-07-24T03:15:08;14.50;99.90
54680;DHT22;40578;53.178;5.846;2022-07-24T03:17:34;14.50;99.90
54680;DHT22;40578;53.178;5.846;2022-07-24T03:20:00;14.50;99.90
54680;DHT22;40578;53.178;5.846;2022-07-24T03:22:26;14.50;99.90
54680;DHT22;40578;53.178;5.846;2022-07-24T03:24:51;14.50;99.90
54680;DHT22;40578;53.178;5.846;2022-07-24T03:27:17;14.50;99.90
54680;DHT22;40578;53.178;5.846;2022-07-24T03:29:43;14.50;99.90
54680;DHT22;40578;53.178;5.846;2022-07-24T03:32:08;14.50;99.90
54680;DHT22;40578;53.178;5.846;2022-07-24T03:34:34;14.50;99.90
54680;DHT22;40578;53.178;5.846;2022-07-24T03:36:59;14.50;99.90
54680;DHT22;40578;53.178;5.846;2022-07-24T03:39:25;14.50;99.90
54680;DHT22;40578;53.178;5.846;2022-07-24T03:41:51;14.50;99.90
54680;DHT22;40578;53.178;5.846;2022-07-24T03:44:16;14.50;99.90
54680;DHT22;40578;53.178;5.846;2022-07-24T03:46:42;14.40;99.90
54680;DHT22;40578;53.178;5.846;2022-07-24T03:49:08;14.40;99.90
54680;DHT22;40578;53.178;5.846;2022-07-24T03:51:33;14.50;99.90
54680;DHT22;40578;53.178;5.846;2022-07-24T03:54:01;14.40;99.90
54680;DHT22;40578;53.178;5.846;2022-07-24T03:56:27;14.50;99.90
54680;DHT22;40578;53.178;5.846;2022-07-24T03:58:54;14.50;99.90
54680;DHT22;40578;53.178;5.846;2022-07-24T04:01:20;14.50;99.90
54680;DHT22;40578;53.178;5.846;2022-07-24T04:03:46;14.60;99.90
54680;DHT22;40578;53.178;5.846;2022-07-24T04:06:11;14.60;99.90
54680;DHT22;40578;53.178;5.846;2022-07-24T04:08:37;14.60;99.90
54680;DHT22;40578;53.178;5.846;2022-07-24T04:11:02;14.60;99.90
54680;DHT22;40578;53.178;5.846;2022-07-24T04:13:31;14.60;99.90
54680;DHT22;40578;53.178;5.846;2022-07-24T04:15:57;14.60;99.90
54680;DHT22;40578;53.178;5.846;2022-07-24T04:18:23;14.60;99.90
54680;DHT22;40578;53.178;5.846;2022-07-24T04:20:49;14.70;99.90
54680;DHT22;40578;53.178;5.846;2022-07-24T04:23:14;14.70;99.90
54680;DHT22;40578;53.178;5.846;2022-07-24T04:25:40;14.80;99.90
54680;DHT22;40578;53.178;5.846;2022-07-24T04:28:06;14.80;99.90
54680;DHT22;40578;53.178;5.846;2022-07-24T04:30:32;14.80;99.90
54680;DHT22;40578;53.178;5.846;2022-07-24T04:32:57;14.80;99.90
54680;DHT22;40578;53.178;5.846;2022-07-24T04:35:24;14.80;99.90
54680;DHT22;40578;53.178;5.846;2022-07-24T04:37:49;14.80;99.90
54680;DHT22;40578;53.178;5.846;2022-07-24T04:40:15;14.90;99.90
54680;DHT22;40578;53.178;5.846;2022-07-24T04:42:41;15.00;99.90
54680;DHT22;40578;53.178;5.846;2022-07-24T04:45:07;15.00;99.90
54680;DHT22;40578;53.178;5.846;2022-07-24T04:47:34;15.00;99.90
54680;DHT22;40578;53.178;5.846;2022-07-24T04:50:00;15.10;99.90
54680;DHT22;40578;53.178;5.846;2022-07-24T04:52:26;15.10;99.90
54680;DHT22;40578;53.178;5.846;2022-07-24T04:54:52;15.20;99.90
54680;DHT22;40578;53.178;5.846;2022-07-24T04:57:17;15.20;99.90
54680;DHT22;40578;53.178;5.846;2022-07-24T04:59:43;15.30;99.90
54680;DHT22;40578;53.178;5.846;2022-07-24T05:02:09;15.30;99.90
54680;DHT22;40578;53.178;5.846;2022-07-24T05:04:35;15.40;99.90
54680;DHT22;40578;53.178;5.846;2022-07-24T05:07:01;15.60;99.90
54680;DHT22;40578;53.178;5.846;2022-07-24T05:09:27;16.20;99.90
54680;DHT22;40578;53.178;5.846;2022-07-24T05:11:53;16.60;99.90
54680;DHT22;40578;53.178;5.846;2022-07-24T05:14:19;16.60;99.90
54680;DHT22;40578;53.178;5.846;2022-07-24T05:16:44;16.80;99.90
54680;DHT22;40578;53.178;5.846;2022-07-24T05:19:10;17.10;99.90
54680;DHT22;40578;53.178;5.846;2022-07-24T05:21:35;17.60;1.00
54680;DHT22;40578;53.178;5.846;2022-07-24T05:24:01;18.20;99.90
54680;DHT22;40578;53.178;5.846;2022-07-24T05:26:28;18.70;78.00
54680;DHT22;40578;53.178;5.846;2022-07-24T05:29:00;19.10;1.00
54680;DHT22;40578;53.178;5.846;2022-07-24T05:31:26;19.30;99.90
54680;DHT22;40578;53.178;5.846;2022-07-24T05:33:52;19.60;99.90
54680;DHT22;40578;53.178;5.846;2022-07-24T05:36:19;19.40;99.90
54680;DHT22;40578;53.178;5.846;2022-07-24T05:38:44;19.10;99.90
54680;DHT22;40578;53.178;5.846;2022-07-24T05:41:13;18.70;99.90
54680;DHT22;40578;53.178;5.846;2022-07-24T05:43:39;18.50;1.00
54680;DHT22;40578;53.178;5.846;2022-07-24T05:46:05;18.30;1.00
54680;DHT22;40578;53.178;5.846;2022-07-24T05:48:31;18.20;1.00
54680;DHT22;40578;53.178;5.846;2022-07-24T05:50:57;18.10;99.90
54680;DHT22;40578;53.178;5.846;2022-07-24T05:53:23;18.00;99.90
54680;DHT22;40578;53.178;5.846;2022-07-24T05:55:49;17.90;99.90
54680;DHT22;40578;53.178;5.846;2022-07-24T05:58:14;17.80;99.90
54680;DHT22;40578;53.178;5.846;2022-07-24T06:00:40;17.80;99.90
54680;DHT22;40578;53.178;5.846;2022-07-24T06:03:06;17.70;1.00
54680;DHT22;40578;53.178;5.846;2022-07-24T06:05:32;17.60;1.00
54680;DHT22;40578;53.178;5.846;2022-07-24T06:07:58;17.60;1.00
54680;DHT22;40578;53.178;5.846;2022-07-24T06:10:23;17.80;1.00
54680;DHT22;40578;53.178;5.846;2022-07-24T06:12:49;18.10;1.00
54680;DHT22;40578;53.178;5.846;2022-07-24T06:15:15;18.90;99.90
54680;DHT22;40578;53.178;5.846;2022-07-24T06:17:41;19.50;1.00
54680;DHT22;40578;53.178;5.846;2022-07-24T06:20:08;19.40;99.90
54680;DHT22;40578;53.178;5.846;2022-07-24T06:22:34;19.10;1.00
54680;DHT22;40578;53.178;5.846;2022-07-24T06:25:00;18.90;99.90
54680;DHT22;40578;53.178;5.846;2022-07-24T06:27:25;18.90;99.90
54680;DHT22;40578;53.178;5.846;2022-07-24T06:29:51;18.80;99.90
54680;DHT22;40578;53.178;5.846;2022-07-24T06:32:17;18.80;99.90
54680;DHT22;40578;53.178;5.846;2022-07-24T06:34:45;18.80;99.90
54680;DHT22;40578;53.178;5.846;2022-07-24T06:37:10;18.80;99.90
54680;DHT22;40578;53.178;5.846;2022-07-24T06:39:36;18.90;1.00
54680;DHT22;40578;53.178;5.846;2022-07-24T06:42:01;19.00;1.00
54680;DHT22;40578;53.178;5.846;2022-07-24T06:44:27;19.00;1.00
54680;DHT22;40578;53.178;5.846;2022-07-24T06:46:53;19.20;99.90
54680;DHT22;40578;53.178;5.846;2022-07-24T06:49:19;19.30;1.00
54680;DHT22;40578;53.178;5.846;2022-07-24T06:51:44;19.40;99.90
54680;DHT22;40578;53.178;5.846;2022-07-24T06:54:10;19.50;99.90
54680;DHT22;40578;53.178;5.846;2022-07-24T06:56:36;19.70;99.90
54680;DHT22;40578;53.178;5.846;2022-07-24T06:59:01;19.80;99.90
54680;DHT22;40578;53.178;5.846;2022-07-24T07:01:27;19.80;99.90
54680;DHT22;40578;53.178;5.846;2022-07-24T07:03:53;19.70;99.90
54680;DHT22;40578;53.178;5.846;2022-07-24T07:06:19;19.60;99.90
54680;DHT22;40578;53.178;5.846;2022-07-24T07:08:45;19.60;99.90
54680;DHT22;40578;53.178;5.846;2022-07-24T07:11:10;19.50;99.90
54680;DHT22;40578;53.178;5.846;2022-07-24T07:13:36;19.50;1.00
54680;DHT22;40578;53.178;5.846;2022-07-24T07:16:02;19.50;1.00
54680;DHT22;40578;53.178;5.846;2022-07-24T07:18:28;19.50;1.00
54680;DHT22;40578;53.178;5.846;2022-07-24T07:20:54;19.50;1.00
54680;DHT22;40578;53.178;5.846;2022-07-24T07:23:22;19.50;1.00
54680;DHT22;40578;53.178;5.846;2022-07-24T07:25:48;19.50;1.00
54680;DHT22;40578;53.178;5.846;2022-07-24T07:28:14;19.50;1.00
54680;DHT22;40578;53.178;5.846;2022-07-24T07:30:40;19.60;1.00
54680;DHT22;40578;53.178;5.846;2022-07-24T07:33:05;19.60;1.00
54680;DHT22;40578;53.178;5.846;2022-07-24T07:35:31;19.80;5.20
54680;DHT22;40578;53.178;5.846;2022-07-24T07:37:56;19.80;33.80
54680;DHT22;40578;53.178;5.846;2022-07-24T07:40:23;19.80;51.60
54680;DHT22;40578;53.178;5.846;2022-07-24T07:42:49;19.80;42.00
54680;DHT22;40578;53.178;5.846;2022-07-24T07:45:17;19.90;1.00
54680;DHT22;40578;53.178;5.846;2022-07-24T07:47:43;19.90;99.90
54680;DHT22;40578;53.178;5.846;2022-07-24T07:50:09;19.90;12.30
54680;DHT22;40578;53.178;5.846;2022-07-24T07:52:35;19.90;1.00
54680;DHT22;40578;53.178;5.846;2022-07-24T07:55:01;20.10;99.90
54680;DHT22;40578;53.178;5.846;2022-07-24T07:57:26;20.00;99.90
54680;DHT22;40578;53.178;5.846;2022-07-24T07:59:52;20.10;99.90
54680;DHT22;40578;53.178;5.846;2022-07-24T08:02:18;20.10;99.90
54680;DHT22;40578;53.178;5.846;2022-07-24T08:04:43;20.10;99.90
54680;DHT22;40578;53.178;5.846;2022-07-24T08:07:09;20.10;99.90
54680;DHT22;40578;53.178;5.846;2022-07-24T08:09:35;20.10;99.90
54680;DHT22;40578;53.178;5.846;2022-07-24T08:12:00;20.20;99.90
54680;DHT22;40578;53.178;5.846;2022-07-24T08:14:26;20.30;99.90
54680;DHT22;40578;53.178;5.846;2022-07-24T08:16:51;20.30;99.90
54680;DHT22;40578;53.178;5.846;2022-07-24T08:19:17;20.30;99.90
54680;DHT22;40578;53.178;5.846;2022-07-24T08:21:42;20.40;99.90
54680;DHT22;40578;53.178;5.846;2022-07-24T08:24:08;20.30;99.90
54680;DHT22;40578;53.178;5.846;2022-07-24T08:26:34;20.30;96.20
54680;DHT22;40578;53.178;5.846;2022-07-24T08:28:59;20.30;99.90
54680;DHT22;40578;53.178;5.846;2022-07-24T08:31:28;20.30;98.50
54680;DHT22;40578;53.178;5.846;2022-07-24T08:33:53;20.50;99.90
54680;DHT22;40578;53.178;5.846;2022-07-24T08:36:19;20.70;96.50
54680;DHT22;40578;53.178;5.846;2022-07-24T08:38:45;20.90;1.00
54680;DHT22;40578;53.178;5.846;2022-07-24T08:41:14;20.90;1.00
54680;DHT22;40578;53.178;5.846;2022-07-24T08:43:40;21.00;6.90
54680;DHT22;40578;53.178;5.846;2022-07-24T08:46:09;21.00;99.90
54680;DHT22;40578;53.178;5.846;2022-07-24T08:48:36;21.20;99.90
54680;DHT22;40578;53.178;5.846;2022-07-24T08:51:02;21.20;99.90
54680;DHT22;40578;53.178;5.846;2022-07-24T08:53:28;21.30;1.00
54680;DHT22;40578;53.178;5.846;2022-07-24T08:55:53;21.40;1.00
54680;DHT22;40578;53.178;5.846;2022-07-24T08:58:19;21.40;1.00
54680;DHT22;40578;53.178;5.846;2022-07-24T09:00:44;21.50;99.90
54680;DHT22;40578;53.178;5.846;2022-07-24T09:03:10;21.50;99.90
54680;DHT22;40578;53.178;5.846;2022-07-24T09:05:57;21.50;99.90
54680;DHT22;40578;53.178;5.846;2022-07-24T09:08:24;21.60;1.00
54680;DHT22;40578;53.178;5.846;2022-07-24T09:11:01;21.60;99.90
54680;DHT22;40578;53.178;5.846;2022-07-24T09:13:31;21.60;99.90
54680;DHT22;40578;53.178;5.846;2022-07-24T09:16:23;21.70;99.90
54680;DHT22;40578;53.178;5.846;2022-07-24T09:18:51;21.70;99.90
54680;DHT22;40578;53.178;5.846;2022-07-24T09:21:27;21.90;99.90
54680;DHT22;40578;53.178;5.846;2022-07-24T09:23:52;21.90;99.90
54680;DHT22;40578;53.178;5.846;2022-07-24T09:26:18;22.00;99.90
54680;DHT22;40578;53.178;5.846;2022-07-24T09:28:52;22.00;99.90
54680;DHT22;40578;53.178;5.846;2022-07-24T09:31:19;21.90;99.90
54680;DHT22;40578;53.178;5.846;2022-07-24T09:33:47;22.00;99.90
54680;DHT22;40578;53.178;5.846;2022-07-24T09:36:15;22.00;99.90
54680;DHT22;40578;53.178;5.846;2022-07-24T09:38:49;22.00;99.90
54680;DHT22;40578;53.178;5.846;2022-07-24T09:41:24;22.00;99.90
54680;DHT22;40578;53.178;5.846;2022-07-24T09:43:58;22.20;99.90
54680;DHT22;40578;53.178;5.846;2022-07-24T09:46:24;22.30;99.90
54680;DHT22;40578;53.178;5.846;2022-07-24T09:48:59;22.30;99.90
54680;DHT22;40578;53.178;5.846;2022-07-24T09:51:27;22.30;99.90
54680;DHT22;40578;53.178;5.846;2022-07-24T09:53:58;22.30;99.90
54680;DHT22;40578;53.178;5.846;2022-07-24T09:56:24;22.70;99.90
54680;DHT22;40578;53.178;5.846;2022-07-24T09:58:56;22.90;99.90
54680;DHT22;40578;53.178;5.846;2022-07-24T10:01:25;23.00;99.90
54680;DHT22;40578;53.178;5.846;2022-07-24T10:03:53;23.10;99.00
54680;DHT22;40578;53.178;5.846;2022-07-24T10:06:22;23.00;11.20
54680;DHT22;40578;53.178;5.846;2022-07-24T10:08:51;22.80;78.10
54680;DHT22;40578;53.178;5.846;2022-07-24T10:11:18;22.80;40.80
54680;DHT22;40578;53.178;5.846;2022-07-24T10:13:44;22.90;85.30
54680;DHT22;40578;53.178;5.846;2022-07-24T10:18:46;22.80;81.20
54680;DHT22;40578;53.178;5.846;2022-07-24T10:21:16;22.80;39.80
54680;DHT22;40578;53.178;5.846;2022-07-24T10:26:45;22.90;99.80
54680;DHT22;40578;53.178;5.846;2022-07-24T10:29:22;23.00;99.90
54680;DHT22;40578;53.178;5.846;2022-07-24T10:31:51;23.20;69.20
54680;DHT22;40578;53.178;5.846;2022-07-24T10:37:28;23.50;89.90
54680;DHT22;40578;53.178;5.846;2022-07-24T10:40:25;23.50;32.60
54680;DHT22;40578;53.178;5.846;2022-07-24T10:48:35;23.40;1.00
54680;DHT22;40578;53.178;5.846;2022-07-24T10:51:12;23.70;94.70
54680;DHT22;40578;53.178;5.846;2022-07-24T10:53:46;23.70;82.50
54680;DHT22;40578;53.178;5.846;2022-07-24T11:01:42;23.70;1.00
54680;DHT22;40578;53.178;5.846;2022-07-24T11:10:00;23.80;1.00
54680;DHT22;40578;53.178;5.846;2022-07-24T11:12:31;24.00;1.00
54680;DHT22;40578;53.178;5.846;2022-07-24T11:15:04;24.00;1.00
54680;DHT22;40578;53.178;5.846;2022-07-24T11:17:52;24.20;1.00
54680;DHT22;40578;53.178;5.846;2022-07-24T11:20:20;24.30;1.00
54680;DHT22;40578;53.178;5.846;2022-07-24T11:22:51;24.30;1.00
54680;DHT22;40578;53.178;5.846;2022-07-24T11:25:24;24.40;1.00
54680;DHT22;40578;53.178;5.846;2022-07-24T11:27:57;24.30;1.00
54680;DHT22;40578;53.178;5.846;2022-07-24T11:30:27;24.30;1.00
54680;DHT22;40578;53.178;5.846;2022-07-24T11:32:54;24.40;1.00
54680;DHT22;40578;53.178;5.846;2022-07-24T11:35:33;24.40;1.00
54680;DHT22;40578;53.178;5.846;2022-07-24T11:38:00;24.20;1.00
54680;DHT22;40578;53.178;5.846;2022-07-24T11:40:27;24.20;23.70
54680;DHT22;40578;53.178;5.846;2022-07-24T11:42:57;24.20;12.70
54680;DHT22;40578;53.178;5.846;2022-07-24T11:45:24;23.90;1.00
54680;DHT22;40578;53.178;5.846;2022-07-24T11:47:49;24.10;1.00
54680;DHT22;40578;53.178;5.846;2022-07-24T11:50:19;24.40;39.20
54680;DHT22;40578;53.178;5.846;2022-07-24T11:52:45;24.70;1.00
54680;DHT22;40578;53.178;5.846;2022-07-24T11:55:15;24.80;1.00
54680;DHT22;40578;53.178;5.846;2022-07-24T11:57:42;25.00;1.00
54680;DHT22;40578;53.178;5.846;2022-07-24T12:00:17;25.10;1.00
54680;DHT22;40578;53.178;5.846;2022-07-24T12:02:48;25.20;1.00
54680;DHT22;40578;53.178;5.846;2022-07-24T12:05:27;25.20;1.00
54680;DHT22;40578;53.178;5.846;2022-07-24T12:07:53;25.30;1.00
54680;DHT22;40578;53.178;5.846;2022-07-24T12:10:19;25.40;1.00
54680;DHT22;40578;53.178;5.846;2022-07-24T12:12:46;25.40;1.00
54680;DHT22;40578;53.178;5.846;2022-07-24T12:15:14;25.30;1.00
54680;DHT22;40578;53.178;5.846;2022-07-24T12:20:43;25.10;1.00
54680;DHT22;40578;53.178;5.846;2022-07-24T12:23:14;25.10;1.00
54680;DHT22;40578;53.178;5.846;2022-07-24T12:25:42;25.20;1.00
54680;DHT22;40578;53.178;5.846;2022-07-24T12:28:14;25.40;1.00
54680;DHT22;40578;53.178;5.846;2022-07-24T12:30:42;25.60;99.90
54680;DHT22;40578;53.178;5.846;2022-07-24T12:36:04;25.70;99.90
54680;DHT22;40578;53.178;5.846;2022-07-24T12:41:09;25.90;99.90
54680;DHT22;40578;53.178;5.846;2022-07-24T12:43:56;26.10;1.00
54680;DHT22;40578;53.178;5.846;2022-07-24T12:46:33;26.30;99.90
54680;DHT22;40578;53.178;5.846;2022-07-24T12:49:07;26.30;99.90
54680;DHT22;40578;53.178;5.846;2022-07-24T12:54:26;26.20;99.90
54680;DHT22;40578;53.178;5.846;2022-07-24T12:56:55;26.30;99.90
54680;DHT22;40578;53.178;5.846;2022-07-24T12:59:31;26.20;99.90
54680;DHT22;40578;53.178;5.846;2022-07-24T13:02:04;26.30;99.90
54680;DHT22;40578;53.178;5.846;2022-07-24T13:04:31;26.40;99.90
54680;DHT22;40578;53.178;5.846;2022-07-24T13:06:58;26.30;1.00
54680;DHT22;40578;53.178;5.846;2022-07-24T13:09:25;26.40;99.90
54680;DHT22;40578;53.178;5.846;2022-07-24T13:11:52;26.50;99.90
54680;DHT22;40578;53.178;5.846;2022-07-24T13:14:19;26.20;99.90
54680;DHT22;40578;53.178;5.846;2022-07-24T13:16:47;26.30;99.90
54680;DHT22;40578;53.178;5.846;2022-07-24T13:19:13;26.30;99.90
54680;DHT22;40578;53.178;5.846;2022-07-24T13:21:40;26.40;99.90
54680;DHT22;40578;53.178;5.846;2022-07-24T13:24:06;26.40;99.90
54680;DHT22;40578;53.178;5.846;2022-07-24T13:26:32;26.60;99.90
54680;DHT22;40578;53.178;5.846;2022-07-24T13:28:58;26.80;99.90
54680;DHT22;40578;53.178;5.846;2022-07-24T13:31:24;26.80;99.90
54680;DHT22;40578;53.178;5.846;2022-07-24T13:33:50;26.80;99.90
54680;DHT22;40578;53.178;5.846;2022-07-24T13:36:17;26.80;99.90
54680;DHT22;40578;53.178;5.846;2022-07-24T13:38:43;26.80;99.90
54680;DHT22;40578;53.178;5.846;2022-07-24T13:41:09;26.80;99.90
54680;DHT22;40578;53.178;5.846;2022-07-24T13:43:34;27.00;99.90
54680;DHT22;40578;53.178;5.846;2022-07-24T13:46:00;27.10;99.90
54680;DHT22;40578;53.178;5.846;2022-07-24T13:48:26;27.30;99.90
54680;DHT22;40578;53.178;5.846;2022-07-24T13:50:51;27.30;99.90
54680;DHT22;40578;53.178;5.846;2022-07-24T13:53:17;27.40;99.90
54680;DHT22;40578;53.178;5.846;2022-07-24T13:55:43;27.30;99.90
54680;DHT22;40578;53.178;5.846;2022-07-24T13:58:08;27.30;99.90
54680;DHT22;40578;53.178;5.846;2022-07-24T14:00:34;27.30;99.90
54680;DHT22;40578;53.178;5.846;2022-07-24T14:03:00;27.30;99.90
54680;DHT22;40578;53.178;5.846;2022-07-24T14:05:26;27.40;99.90
54680;DHT22;40578;53.178;5.846;2022-07-24T14:07:52;27.40;99.90
54680;DHT22;40578;53.178;5.846;2022-07-24T14:10:19;27.50;99.90
54680;DHT22;40578;53.178;5.846;2022-07-24T14:12:45;27.50;99.90
54680;DHT22;40578;53.178;5.846;2022-07-24T14:15:11;27.30;99.90
54680;DHT22;40578;53.178;5.846;2022-07-24T14:17:41;27.20;99.90
54680;DHT22;40578;53.178;5.846;2022-07-24T14:20:08;27.30;99.90
54680;DHT22;40578;53.178;5.846;2022-07-24T14:22:35;27.50;99.90
54680;DHT22;40578;53.178;5.846;2022-07-24T14:25:01;27.60;99.90
54680;DHT22;40578;53.178;5.846;2022-07-24T14:27:27;27.70;99.90
54680;DHT22;40578;53.178;5.846;2022-07-24T14:29:54;27.60;99.90
54680;DHT22;40578;53.178;5.846;2022-07-24T14:32:19;27.50;99.90
54680;DHT22;40578;53.178;5.846;2022-07-24T14:34:45;27.60;99.90
54680;DHT22;40578;53.178;5.846;2022-07-24T14:37:11;27.70;99.90
54680;DHT22;40578;53.178;5.846;2022-07-24T14:39:36;27.90;99.90
54680;DHT22;40578;53.178;5.846;2022-07-24T14:42:05;27.80;99.90
54680;DHT22;40578;53.178;5.846;2022-07-24T14:44:31;27.90;99.90
54680;DHT22;40578;53.178;5.846;2022-07-24T14:46:57;27.80;99.90
54680;DHT22;40578;53.178;5.846;2022-07-24T14:49:24;27.60;99.90
54680;DHT22;40578;53.178;5.846;2022-07-24T14:51:50;27.60;99.90
54680;DHT22;40578;53.178;5.846;2022-07-24T14:54:15;27.70;99.90
54680;DHT22;40578;53.178;5.846;2022-07-24T14:56:41;27.80;99.90
54680;DHT22;40578;53.178;5.846;2022-07-24T14:59:07;27.90;99.90
54680;DHT22;40578;53.178;5.846;2022-07-24T15:01:33;28.00;99.90
54680;DHT22;40578;53.178;5.846;2022-07-24T15:03:59;28.00;99.90
54680;DHT22;40578;53.178;5.846;2022-07-24T15:06:27;27.90;99.90
54680;DHT22;40578;53.178;5.846;2022-07-24T15:08:53;27.90;99.90
54680;DHT22;40578;53.178;5.846;2022-07-24T15:11:19;28.00;99.90
54680;DHT22;40578;53.178;5.846;2022-07-24T15:13:47;28.10;99.90
54680;DHT22;40578;53.178;5.846;2022-07-24T15:16:13;28.30;99.90
54680;DHT22;40578;53.178;5.846;2022-07-24T15:18:39;28.30;99.90
54680;DHT22;40578;53.178;5.846;2022-07-24T15:21:05;28.20;99.90
54680;DHT22;40578;53.178;5.846;2022-07-24T15:23:31;28.40;99.90
54680;DHT22;40578;53.178;5.846;2022-07-24T15:25:59;28.30;99.90
54680;DHT22;40578;53.178;5.846;2022-07-24T15:28:24;28.20;99.90
54680;DHT22;40578;53.178;5.846;2022-07-24T15:30:52;28.30;99.90
54680;DHT22;40578;53.178;5.846;2022-07-24T15:33:17;28.40;99.90
54680;DHT22;40578;53.178;5.846;2022-07-24T15:35:43;28.40;99.90
54680;DHT22;40578;53.178;5.846;2022-07-24T15:38:09;28.40;99.90
54680;DHT22;40578;53.178;5.846;2022-07-24T15:40:35;28.50;99.90
54680;DHT22;40578;53.178;5.846;2022-07-24T15:43:01;28.50;99.90
54680;DHT22;40578;53.178;5.846;2022-07-24T15:45:27;28.40;99.90
54680;DHT22;40578;53.178;5.846;2022-07-24T15:47:53;28.20;99.90
54680;DHT22;40578;53.178;5.846;2022-07-24T15:50:19;28.30;99.90
54680;DHT22;40578;53.178;5.846;2022-07-24T15:52:44;27.90;99.90
54680;DHT22;40578;53.178;5.846;2022-07-24T15:55:10;27.60;99.90
54680;DHT22;40578;53.178;5.846;2022-07-24T15:57:36;27.60;99.90
54680;DHT22;40578;53.178;5.846;2022-07-24T16:00:04;27.70;99.90
54680;DHT22;40578;53.178;5.846;2022-07-24T16:02:29;27.80;99.90
54680;DHT22;40578;53.178;5.846;2022-07-24T16:04:55;27.90;99.90
54680;DHT22;40578;53.178;5.846;2022-07-24T16:07:21;28.00;99.90